Time;durP1;ratioP1;P1;durP2;ratioP2;P2;SDS_P1;SDS_P2;PMS_P1;PMS_P2;Temp;Humidity;BMP_temperature;BMP_pressure;BME280_temperature;BME280_humidity;BME280_pressure;Samples;Min_cycle;Max_cycle;Signal;HPM_P1;HPM_P2
2023/01/29 00:01:08;;;;;;;8.57;4.50;;;;;;;;;;10423096;28;20598;-78
2023/01/29 00:06:09;;;;;;;5.13;4.47;;;;;;;;;;10422466;28;20214;-76
2023/01/29 00:11:10;;;;;;;8.20;4.70;;;;;;;;;;10426887;28;20314;-76
2023/01/29 00:16:12;;;;;;;6.07;4.50;;;;;;;;;;10411373;28;20246;-79
2023/01/29 00:21:17;;;;;;;9.27;5.03;;;;;;;;;;10428923;28;20218;-76
2023/01/29 00:26:18;;;;;;;7.37;4.17;;;;;;;;;;10409011;28;20276;-78
2023/01/29 00:31:23;;;;;;;11.20;4.37;;;;;;;;;;10417311;28;20715;-77
2023/01/29 00:36:24;;;;;;;9.50;5.60;;;;;;;;;;10431882;28;20215;-76
2023/01/29 00:46:47;;;;;;;12.73;6.53;;;;;;;;;;10453428;28;20762;-76
2023/01/29 00:52:22;;;;;;;5.70;5.00;;;;;;;;;;10422747;28;20230;-77
2023/01/29 00:57:09;;;;;;;9.03;5.10;;;;;;;;;;10426908;28;20218;-78
2023/01/29 01:07:31;;;;;;;8.63;5.07;;;;;;;;;;10399975;28;20759;-76
2023/01/29 01:12:33;;;;;;;9.63;5.40;;;;;;;;;;10421680;28;20268;-77
2023/01/29 01:17:34;;;;;;;8.03;5.03;;;;;;;;;;10425653;28;20302;-78
2023/01/29 01:22:35;;;;;;;9.00;4.87;;;;;;;;;;10425971;28;20257;-76
2023/01/29 01:27:39;;;;;;;12.63;5.67;;;;;;;;;;10448266;28;20596;-77
2023/01/29 01:32:42;;;;;;;8.00;5.63;;;;;;;;;;10458452;28;20232;-76
2023/01/29 01:37:43;;;;;;;9.77;5.60;;;;;;;;;;10403613;28;20214;-75
2023/01/29 01:42:44;;;;;;;15.07;6.83;;;;;;;;;;10411158;28;20223;-76
2023/01/29 01:47:47;;;;;;;11.63;6.20;;;;;;;;;;10409387;28;20863;-78
2023/01/29 01:52:51;;;;;;;11.02;5.80;;;;;;;;;;10430480;28;20330;-77
2023/01/29 01:57:55;;;;;;;11.88;5.85;;;;;;;;;;10428859;28;20219;-76
2023/01/29 02:13:42;;;;;;;13.13;5.88;;;;;;;;;;10419807;28;20211;-78
2023/01/29 02:18:43;;;;;;;12.18;5.68;;;;;;;;;;10425165;28;20298;-77
2023/01/29 02:24:04;;;;;;;9.18;5.95;;;;;;;;;;10430109;28;20329;-79
2023/01/29 02:29:24;;;;;;;11.88;5.05;;;;;;;;;;10433673;28;20318;-75
2023/01/29 02:34:25;;;;;;;15.00;5.95;;;;;;;;;;10414310;28;20223;-77
2023/01/29 02:39:27;;;;;;;11.95;5.40;;;;;;;;;;10413104;28;20701;-79
2023/01/29 02:44:43;;;;;;;11.88;5.95;;;;;;;;;;10413315;28;20226;-78
2023/01/29 02:49:48;;;;;;;10.48;5.63;;;;;;;;;;10430896;28;20234;-79
2023/01/29 02:54:54;;;;;;;12.65;6.60;;;;;;;;;;10428563;28;20218;-77
2023/01/29 03:00:02;;;;;;;8.75;6.22;;;;;;;;;;10404076;28;20226;-76
2023/01/29 03:05:06;;;;;;;13.13;5.72;;;;;;;;;;10423176;28;20211;-77
2023/01/29 03:10:19;;;;;;;9.77;5.03;;;;;;;;;;10432242;28;20214;-77
2023/01/29 03:15:25;;;;;;;8.77;5.55;;;;;;;;;;10430918;28;20187;-77
2023/01/29 03:20:51;;;;;;;10.15;5.10;;;;;;;;;;10414718;28;20218;-77
2023/01/29 03:36:38;;;;;;;7.47;5.35;;;;;;;;;;10421680;28;20215;-75
2023/01/29 03:42:02;;;;;;;8.45;5.53;;;;;;;;;;10426454;28;20218;-78
2023/01/29 03:47:24;;;;;;;13.77;6.03;;;;;;;;;;10396635;28;20236;-77
2023/01/29 03:52:27;;;;;;;9.02;4.80;;;;;;;;;;10372591;28;20257;-78
2023/01/29 03:57:44;;;;;;;11.95;6.43;;;;;;;;;;10397093;28;20232;-76
2023/01/29 04:03:00;;;;;;;12.20;5.32;;;;;;;;;;10411504;28;20217;-75
2023/01/29 04:08:06;;;;;;;9.48;4.63;;;;;;;;;;10389001;28;20242;-78
2023/01/29 04:13:10;;;;;;;9.13;5.95;;;;;;;;;;10411995;28;20255;-78
2023/01/29 04:18:13;;;;;;;10.98;5.78;;;;;;;;;;10426399;28;20261;-78
2023/01/29 04:23:35;;;;;;;8.05;5.22;;;;;;;;;;10427826;28;20252;-76
2023/01/29 04:28:52;;;;;;;7.75;5.28;;;;;;;;;;10428471;28;20202;-78
2023/01/29 04:34:10;;;;;;;10.93;5.50;;;;;;;;;;10407437;28;20218;-77
2023/01/29 04:39:17;;;;;;;16.38;5.20;;;;;;;;;;10409907;28;20663;-77
2023/01/29 04:44:38;;;;;;;8.10;5.10;;;;;;;;;;10399355;28;20226;-76
2023/01/29 04:49:44;;;;;;;7.88;5.25;;;;;;;;;;10416989;28;20744;-78
2023/01/29 04:55:12;;;;;;;11.10;5.70;;;;;;;;;;10427746;28;20731;-79
2023/01/29 05:00:32;;;;;;;5.75;4.80;;;;;;;;;;10390000;28;20360;-77
2023/01/29 05:05:33;;;;;;;10.13;5.75;;;;;;;;;;10392748;28;20248;-76
2023/01/29 05:10:35;;;;;;;9.20;5.57;;;;;;;;;;10428823;28;20294;-79
2023/01/29 05:15:41;;;;;;;8.48;4.82;;;;;;;;;;10410033;28;20692;-78
2023/01/29 05:20:43;;;;;;;11.45;6.20;;;;;;;;;;10407714;28;20222;-78
2023/01/29 05:25:45;;;;;;;10.20;6.35;;;;;;;;;;10433945;28;20647;-78
2023/01/29 05:30:47;;;;;;;10.80;5.35;;;;;;;;;;10432033;28;20797;-77
2023/01/29 05:35:49;;;;;;;9.10;5.20;;;;;;;;;;10431113;28;20703;-77
2023/01/29 05:40:50;;;;;;;10.60;5.80;;;;;;;;;;10436405;28;20712;-80
2023/01/29 05:45:54;;;;;;;13.40;5.95;;;;;;;;;;10430189;28;20276;-79
2023/01/29 05:51:03;;;;;;;8.65;5.32;;;;;;;;;;10427161;28;20214;-78
2023/01/29 05:56:04;;;;;;;11.00;5.85;;;;;;;;;;10433861;28;20284;-77
2023/01/29 06:01:09;;;;;;;8.98;5.50;;;;;;;;;;10431985;28;20210;-77
2023/01/29 06:06:10;;;;;;;7.63;5.53;;;;;;;;;;10424410;28;20211;-76
2023/01/29 06:11:12;;;;;;;11.55;4.93;;;;;;;;;;10434934;28;21113;-77
2023/01/29 06:16:13;;;;;;;10.75;6.35;;;;;;;;;;10406827;28;20596;-78
2023/01/29 06:21:15;;;;;;;10.65;5.55;;;;;;;;;;10427339;28;20305;-78
2023/01/29 06:26:16;;;;;;;13.52;6.18;;;;;;;;;;10433711;28;20225;-76
2023/01/29 06:31:17;;;;;;;11.02;6.40;;;;;;;;;;10429687;28;20207;-78
2023/01/29 06:36:18;;;;;;;10.95;5.78;;;;;;;;;;10429291;28;20276;-78
2023/01/29 06:41:24;;;;;;;8.55;4.95;;;;;;;;;;10428318;28;20210;-78
2023/01/29 06:46:25;;;;;;;12.02;6.07;;;;;;;;;;10414892;28;20760;-77
2023/01/29 06:51:26;;;;;;;11.15;6.10;;;;;;;;;;10403068;28;20219;-78
2023/01/29 06:56:27;;;;;;;9.93;6.15;;;;;;;;;;10410029;28;20203;-78
2023/01/29 07:01:28;;;;;;;15.30;6.07;;;;;;;;;;10430323;28;20736;-78
2023/01/29 07:06:29;;;;;;;11.60;6.10;;;;;;;;;;10420741;28;20700;-77
2023/01/29 07:11:31;;;;;;;9.77;6.15;;;;;;;;;;10401578;28;20331;-79
2023/01/29 07:16:32;;;;;;;8.20;4.97;;;;;;;;;;10414112;28;20395;-76
2023/01/29 07:21:33;;;;;;;9.93;5.93;;;;;;;;;;10403109;28;20619;-78
2023/01/29 07:26:34;;;;;;;7.05;4.75;;;;;;;;;;10424022;28;20574;-77
2023/01/29 07:31:36;;;;;;;11.90;5.18;;;;;;;;;;10418937;28;20214;-79
2023/01/29 07:36:37;;;;;;;8.77;6.03;;;;;;;;;;10419597;28;20210;-77
2023/01/29 07:41:38;;;;;;;12.60;6.22;;;;;;;;;;10407036;28;20685;-79
2023/01/29 07:46:49;;;;;;;7.28;5.47;;;;;;;;;;10417425;28;20215;-79
2023/01/29 07:51:50;;;;;;;12.00;6.13;;;;;;;;;;10396589;28;20210;-77
2023/01/29 07:56:51;;;;;;;9.35;5.63;;;;;;;;;;10418146;28;20212;-76
2023/01/29 08:01:52;;;;;;;10.50;6.05;;;;;;;;;;10400368;28;20218;-77
2023/01/29 08:06:53;;;;;;;9.93;6.13;;;;;;;;;;10411225;28;20767;-78
2023/01/29 08:11:55;;;;;;;11.00;6.10;;;;;;;;;;10415417;28;20218;-79
2023/01/29 08:16:56;;;;;;;9.23;6.13;;;;;;;;;;10417957;28;20222;-78
2023/01/29 08:21:57;;;;;;;9.25;6.20;;;;;;;;;;10419693;28;20313;-77
2023/01/29 08:26:58;;;;;;;16.60;6.63;;;;;;;;;;10424623;28;20763;-79
2023/01/29 08:31:59;;;;;;;8.70;6.10;;;;;;;;;;10436633;28;20217;-78
2023/01/29 08:37:00;;;;;;;11.68;6.38;;;;;;;;;;10422343;28;20222;-78
2023/01/29 08:42:01;;;;;;;16.40;6.93;;;;;;;;;;10423084;28;20250;-79
2023/01/29 08:47:02;;;;;;;10.15;5.78;;;;;;;;;;10427801;28;20220;-77
2023/01/29 08:52:04;;;;;;;7.55;4.80;;;;;;;;;;10423513;28;20219;-79
2023/01/29 08:57:05;;;;;;;10.18;5.38;;;;;;;;;;10410991;28;20214;-78
2023/01/29 09:02:06;;;;;;;11.00;5.93;;;;;;;;;;10435693;28;20338;-77
2023/01/29 09:07:07;;;;;;;10.20;5.72;;;;;;;;;;10417831;28;20243;-79
2023/01/29 09:12:08;;;;;;;10.15;6.70;;;;;;;;;;10413247;28;20372;-75
2023/01/29 09:17:09;;;;;;;12.73;5.88;;;;;;;;;;10421675;28;20207;-76
2023/01/29 09:22:10;;;;;;;14.85;6.15;;;;;;;;;;10421834;28;20264;-77
2023/01/29 09:27:11;;;;;;;10.38;5.40;;;;;;;;;;10426609;28;20572;-78
2023/01/29 09:32:13;;;;;;;16.95;6.15;;;;;;;;;;10416258;28;20215;-78
2023/01/29 09:37:16;;;;;;;12.82;6.25;;;;;;;;;;10423834;28;20226;-79
2023/01/29 09:42:47;;;;;;;10.27;5.20;;;;;;;;;;10424377;28;20219;-78
2023/01/29 09:47:48;;;;;;;11.75;5.30;;;;;;;;;;10405383;28;20321;-74
2023/01/29 09:52:52;;;;;;;17.00;7.60;;;;;;;;;;10420395;28;20309;-75
2023/01/29 09:58:03;;;;;;;11.73;5.93;;;;;;;;;;10399801;28;20214;-76
2023/01/29 10:03:14;;;;;;;7.22;4.55;;;;;;;;;;10419934;28;20214;-76
2023/01/29 10:08:24;;;;;;;8.98;5.57;;;;;;;;;;10403248;28;21074;-75
2023/01/29 10:13:47;;;;;;;9.43;5.30;;;;;;;;;;10414631;28;20226;-78
2023/01/29 10:18:55;;;;;;;14.32;6.05;;;;;;;;;;10422434;28;20977;-78
2023/01/29 10:24:02;;;;;;;12.25;7.22;;;;;;;;;;10425110;28;20802;-77
2023/01/29 10:29:06;;;;;;;10.63;6.45;;;;;;;;;;10426196;28;20210;-77
2023/01/29 10:34:30;;;;;;;9.68;6.15;;;;;;;;;;10420474;28;20774;-76
2023/01/29 10:39:31;;;;;;;12.07;6.70;;;;;;;;;;10410151;28;20704;-78
2023/01/29 10:44:53;;;;;;;9.15;5.43;;;;;;;;;;10429685;28;20219;-76
2023/01/29 10:50:08;;;;;;;9.75;6.15;;;;;;;;;;10380594;28;1045184;-75
2023/01/29 10:55:12;;;;;;;9.18;6.00;;;;;;;;;;10426535;28;20221;-78
2023/01/29 11:00:18;;;;;;;6.82;4.75;;;;;;;;;;10414618;28;20210;-78
2023/01/29 11:05:26;;;;;;;11.55;6.45;;;;;;;;;;10423082;28;20175;-79
2023/01/29 11:10:28;;;;;;;10.00;5.55;;;;;;;;;;10410996;28;20222;-79
2023/01/29 11:15:31;;;;;;;7.50;5.07;;;;;;;;;;10422085;28;20598;-77
2023/01/29 11:20:33;;;;;;;7.45;5.20;;;;;;;;;;10414001;28;20226;-77
2023/01/29 11:25:35;;;;;;;9.88;5.30;;;;;;;;;;10421657;28;20202;-77
2023/01/29 11:30:38;;;;;;;9.93;5.28;;;;;;;;;;10386636;28;20329;-78
2023/01/29 11:35:39;;;;;;;9.63;5.05;;;;;;;;;;10397364;28;20222;-79
2023/01/29 11:40:40;;;;;;;8.38;5.00;;;;;;;;;;10391519;28;20214;-81
2023/01/29 11:45:42;;;;;;;9.00;5.30;;;;;;;;;;10406211;28;20210;-78
2023/01/29 11:50:43;;;;;;;10.65;5.93;;;;;;;;;;10400467;28;20334;-79
2023/01/29 11:55:46;;;;;;;5.40;3.97;;;;;;;;;;10400505;28;20231;-77
2023/01/29 12:00:50;;;;;;;8.77;5.05;;;;;;;;;;10414662;28;20210;-80
2023/01/29 12:05:55;;;;;;;7.22;5.03;;;;;;;;;;10391842;28;20226;-81
2023/01/29 12:11:13;;;;;;;8.90;5.35;;;;;;;;;;10419095;28;20219;-81
2023/01/29 12:16:21;;;;;;;7.50;4.97;;;;;;;;;;10411509;28;20272;-81
2023/01/29 12:21:32;;;;;;;8.73;5.53;;;;;;;;;;10407152;28;20662;-80
2023/01/29 12:26:40;;;;;;;10.02;6.45;;;;;;;;;;10392632;28;20238;-80
2023/01/29 12:31:52;;;;;;;13.02;5.80;;;;;;;;;;10404911;28;20688;-80
2023/01/29 12:36:56;;;;;;;7.63;5.53;;;;;;;;;;10420341;28;20207;-80
2023/01/29 12:41:59;;;;;;;10.50;5.85;;;;;;;;;;10400820;28;20229;-80
2023/01/29 12:47:02;;;;;;;5.78;4.85;;;;;;;;;;10401305;28;20699;-82
2023/01/29 12:52:07;;;;;;;8.15;5.22;;;;;;;;;;10414758;28;20222;-79
2023/01/29 12:57:13;;;;;;;16.35;9.93;;;;;;;;;;10413807;28;20207;-79
2023/01/29 13:02:19;;;;;;;9.80;6.00;;;;;;;;;;10414148;28;20222;-81
2023/01/29 13:07:24;;;;;;;17.08;9.57;;;;;;;;;;10413393;28;22731;-81
2023/01/29 13:12:26;;;;;;;7.90;4.60;;;;;;;;;;10381096;28;20222;-78
2023/01/29 13:17:33;;;;;;;8.40;4.78;;;;;;;;;;10403252;28;20215;-80
2023/01/29 13:22:36;;;;;;;6.38;5.10;;;;;;;;;;10399043;28;20222;-79
2023/01/29 13:27:38;;;;;;;10.80;6.03;;;;;;;;;;10431905;28;20369;-82
2023/01/29 13:32:40;;;;;;;10.05;4.80;;;;;;;;;;10410005;28;20238;-79
2023/01/29 13:37:46;;;;;;;10.02;6.43;;;;;;;;;;10411951;28;20268;-79
2023/01/29 13:42:49;;;;;;;7.80;5.22;;;;;;;;;;10388629;28;20627;-80
2023/01/29 13:47:51;;;;;;;9.45;6.15;;;;;;;;;;10381326;28;20210;-80
2023/01/29 13:52:52;;;;;;;9.90;4.93;;;;;;;;;;10405249;28;20222;-79
2023/01/29 13:57:54;;;;;;;8.68;5.47;;;;;;;;;;10438957;28;20219;-79
2023/01/29 14:02:55;;;;;;;10.88;6.47;;;;;;;;;;10425760;28;20318;-78
2023/01/29 14:07:58;;;;;;;8.90;5.18;;;;;;;;;;10434301;28;20689;-78
2023/01/29 14:12:59;;;;;;;9.68;5.35;;;;;;;;;;10435530;28;20215;-81
2023/01/29 14:18:00;;;;;;;7.32;4.40;;;;;;;;;;10415136;28;20241;-81
2023/01/29 14:23:03;;;;;;;8.77;5.35;;;;;;;;;;10435125;28;20992;-78
2023/01/29 14:28:04;;;;;;;6.50;4.63;;;;;;;;;;10421188;28;20297;-78
2023/01/29 14:33:16;;;;;;;7.03;5.50;;;;;;;;;;10427414;28;20211;-80
2023/01/29 14:38:18;;;;;;;10.38;5.03;;;;;;;;;;10434683;28;20207;-79
2023/01/29 14:43:20;;;;;;;6.10;4.30;;;;;;;;;;10419055;28;20215;-79
2023/01/29 14:48:38;;;;;;;7.53;5.20;;;;;;;;;;10425194;28;20219;-79
2023/01/29 14:53:45;;;;;;;7.65;4.97;;;;;;;;;;10432885;28;20309;-80
2023/01/29 14:58:48;;;;;;;9.45;5.95;;;;;;;;;;10433380;28;20219;-79
2023/01/29 15:03:57;;;;;;;18.08;11.80;;;;;;;;;;10401252;28;20226;-77
2023/01/29 15:09:16;;;;;;;51.42;21.45;;;;;;;;;;10434272;28;20321;-80
2023/01/29 15:14:24;;;;;;;45.65;22.17;;;;;;;;;;10404952;28;20214;-80
2023/01/29 15:19:25;;;;;;;22.98;13.98;;;;;;;;;;10409617;28;20715;-79
2023/01/29 15:24:26;;;;;;;36.42;18.77;;;;;;;;;;10416481;28;20223;-81
2023/01/29 15:29:28;;;;;;;26.77;13.98;;;;;;;;;;10417806;28;20206;-78
2023/01/29 15:34:29;;;;;;;16.10;8.38;;;;;;;;;;10388117;28;20217;-81
2023/01/29 15:39:30;;;;;;;8.77;5.90;;;;;;;;;;10425792;28;20887;-82
2023/01/29 15:44:32;;;;;;;14.80;9.20;;;;;;;;;;10389349;28;20218;-80
2023/01/29 15:49:35;;;;;;;291.90;97.82;;;;;;;;;;10396664;28;20214;-82
2023/01/29 15:54:36;;;;;;;338.65;107.93;;;;;;;;;;10424036;28;20238;-82
2023/01/29 15:59:41;;;;;;;25.45;13.30;;;;;;;;;;10409061;28;20207;-81
2023/01/29 16:04:42;;;;;;;223.40;84.15;;;;;;;;;;10421283;28;20276;-82
2023/01/29 16:09:44;;;;;;;14.93;10.48;;;;;;;;;;10418048;28;20828;-78
2023/01/29 16:14:45;;;;;;;12.35;8.32;;;;;;;;;;10421309;28;20222;-81
2023/01/29 16:19:54;;;;;;;41.83;19.08;;;;;;;;;;10410494;28;20221;-80
2023/01/29 16:24:56;;;;;;;72.20;33.33;;;;;;;;;;10444304;28;20214;-78
2023/01/29 16:29:58;;;;;;;50.60;22.08;;;;;;;;;;10443858;28;20231;-81
2023/01/29 16:34:59;;;;;;;31.52;20.38;;;;;;;;;;10441174;28;20234;-80
2023/01/29 16:40:10;;;;;;;18.33;9.80;;;;;;;;;;10400100;28;20309;-80
2023/01/29 16:45:27;;;;;;;14.27;6.93;;;;;;;;;;10421362;28;20225;-81
2023/01/29 16:50:34;;;;;;;8.75;6.88;;;;;;;;;;10418774;28;20222;-82
2023/01/29 16:55:37;;;;;;;4.20;3.90;;;;;;;;;;10412009;28;20306;-82
2023/01/29 17:00:42;;;;;;;8.52;4.65;;;;;;;;;;10424940;28;20219;-80
2023/01/29 17:05:44;;;;;;;14.88;6.93;;;;;;;;;;10426484;28;20210;-81
2023/01/29 17:10:47;;;;;;;9.40;6.93;;;;;;;;;;10429932;28;20218;-81
2023/01/29 17:15:48;;;;;;;6.15;5.43;;;;;;;;;;10423809;28;20245;-80
2023/01/29 17:20:49;;;;;;;6.65;4.03;;;;;;;;;;10405777;28;20206;-79
2023/01/29 17:25:50;;;;;;;10.70;7.03;;;;;;;;;;10422312;28;20203;-78
2023/01/29 17:30:51;;;;;;;7.05;5.03;;;;;;;;;;10425895;28;21032;-78
2023/01/29 17:35:53;;;;;;;42.28;20.88;;;;;;;;;;10425717;28;20234;-79
2023/01/29 17:41:06;;;;;;;13.10;8.23;;;;;;;;;;10420167;28;20327;-79
2023/01/29 17:46:11;;;;;;;5.80;4.70;;;;;;;;;;10392858;28;20215;-79
2023/01/29 17:51:16;;;;;;;4.97;4.47;;;;;;;;;;10425293;28;20304;-78
2023/01/29 17:56:31;;;;;;;6.25;3.90;;;;;;;;;;10419635;28;20305;-79
2023/01/29 18:01:32;;;;;;;4.57;4.18;;;;;;;;;;10417056;28;21025;-78
2023/01/29 18:06:33;;;;;;;7.05;3.92;;;;;;;;;;10425520;28;20281;-78
2023/01/29 18:11:34;;;;;;;4.68;3.95;;;;;;;;;;10388106;28;20214;-77
2023/01/29 18:16:36;;;;;;;7.90;3.92;;;;;;;;;;10431479;28;20213;-79
2023/01/29 18:21:37;;;;;;;4.68;4.13;;;;;;;;;;10416560;28;20253;-79
2023/01/29 18:26:38;;;;;;;11.52;6.85;;;;;;;;;;10405845;28;20210;-76
2023/01/29 18:31:39;;;;;;;13.18;6.70;;;;;;;;;;10426409;28;20725;-78
2023/01/29 18:36:45;;;;;;;12.52;4.57;;;;;;;;;;10423807;28;20215;-79
2023/01/29 18:41:47;;;;;;;7.72;4.60;;;;;;;;;;10410488;28;20222;-78
2023/01/29 18:46:48;;;;;;;6.93;5.30;;;;;;;;;;10411694;28;20242;-79
2023/01/29 18:52:14;;;;;;;4.63;4.18;;;;;;;;;;10397335;28;20272;-78
2023/01/29 18:58:05;;;;;;;7.82;5.28;;;;;;;;;;10419716;28;20217;-78
2023/01/29 19:03:32;;;;;;;5.57;4.20;;;;;;;;;;10415791;28;20234;-80
2023/01/29 19:08:33;;;;;;;9.95;4.70;;;;;;;;;;10401923;28;20211;-81
2023/01/29 19:13:35;;;;;;;4.82;4.30;;;;;;;;;;10397635;28;20288;-81
2023/01/29 19:18:37;;;;;;;4.68;4.07;;;;;;;;;;10384880;28;20210;-81
2023/01/29 19:23:39;;;;;;;5.53;4.97;;;;;;;;;;10409913;28;20298;-83
2023/01/29 19:28:40;;;;;;;7.03;4.72;;;;;;;;;;10402684;28;20241;-80
2023/01/29 19:33:41;;;;;;;7.57;4.95;;;;;;;;;;10389362;28;20246;-80
2023/01/29 19:38:42;;;;;;;8.48;4.95;;;;;;;;;;10419588;28;20210;-81
2023/01/29 19:43:45;;;;;;;6.35;4.82;;;;;;;;;;10405202;28;20305;-81
2023/01/29 19:48:47;;;;;;;4.55;4.13;;;;;;;;;;10398124;28;20306;-80
2023/01/29 19:53:48;;;;;;;4.38;3.67;;;;;;;;;;10418335;28;20233;-80
2023/01/29 19:58:49;;;;;;;5.40;4.10;;;;;;;;;;10426543;28;20268;-80
2023/01/29 20:03:50;;;;;;;6.85;3.90;;;;;;;;;;10402716;28;20945;-81
2023/01/29 20:08:51;;;;;;;5.03;3.78;;;;;;;;;;10414651;28;20249;-81
2023/01/29 20:13:53;;;;;;;7.28;4.28;;;;;;;;;;10408822;28;20248;-82
2023/01/29 20:18:54;;;;;;;4.22;3.90;;;;;;;;;;10405432;28;20508;-80
2023/01/29 20:23:55;;;;;;;4.57;4.03;;;;;;;;;;10400793;28;20222;-80
2023/01/29 20:28:56;;;;;;;5.57;4.03;;;;;;;;;;10409578;28;20202;-81
2023/01/29 20:33:57;;;;;;;7.78;4.97;;;;;;;;;;10421020;28;20215;-81
2023/01/29 20:38:58;;;;;;;4.05;3.63;;;;;;;;;;10406152;28;20219;-80
2023/01/29 20:43:59;;;;;;;5.05;3.75;;;;;;;;;;10399475;28;20214;-81
2023/01/29 20:49:01;;;;;;;4.90;3.95;;;;;;;;;;10408335;28;20899;-83
2023/01/29 20:54:02;;;;;;;3.80;3.28;;;;;;;;;;10400417;28;20663;-80
2023/01/29 20:59:03;;;;;;;4.38;3.97;;;;;;;;;;10399064;28;20229;-79
2023/01/29 21:04:04;;;;;;;4.03;3.55;;;;;;;;;;10422125;28;20214;-81
2023/01/29 21:09:05;;;;;;;4.65;3.85;;;;;;;;;;10403158;28;20997;-82
2023/01/29 21:14:07;;;;;;;5.43;3.85;;;;;;;;;;10406705;28;20214;-81
2023/01/29 21:19:08;;;;;;;5.35;4.10;;;;;;;;;;10426259;28;20287;-81
2023/01/29 21:24:10;;;;;;;4.90;3.97;;;;;;;;;;10420190;28;20852;-82
2023/01/29 21:29:12;;;;;;;5.50;4.43;;;;;;;;;;10435504;28;20277;-80
2023/01/29 21:34:13;;;;;;;5.22;4.22;;;;;;;;;;10410690;28;20223;-82
2023/01/29 21:39:19;;;;;;;6.50;4.40;;;;;;;;;;10424330;28;20325;-79
2023/01/29 21:44:20;;;;;;;5.78;4.90;;;;;;;;;;10429780;28;20223;-79
2023/01/29 21:49:21;;;;;;;6.93;4.82;;;;;;;;;;10418662;28;20295;-79
2023/01/29 21:54:29;;;;;;;11.25;5.35;;;;;;;;;;10398711;28;20963;-78
2023/01/29 21:59:31;;;;;;;11.80;6.38;;;;;;;;;;10413342;28;20222;-79
2023/01/29 22:04:32;;;;;;;9.65;6.22;;;;;;;;;;10405236;28;20215;-78
2023/01/29 22:09:33;;;;;;;13.15;6.88;;;;;;;;;;10417992;28;20276;-77
2023/01/29 22:14:34;;;;;;;12.10;6.78;;;;;;;;;;10419323;28;20213;-77
2023/01/29 22:19:35;;;;;;;7.10;5.75;;;;;;;;;;10394759;28;20220;-79
2023/01/29 22:24:37;;;;;;;10.98;6.82;;;;;;;;;;10402650;28;20227;-77
2023/01/29 22:29:38;;;;;;;9.15;6.93;;;;;;;;;;10425434;28;20731;-76
2023/01/29 22:34:39;;;;;;;8.90;6.22;;;;;;;;;;10409910;28;20320;-77
2023/01/29 22:39:40;;;;;;;12.88;6.53;;;;;;;;;;10424303;28;21388;-79
2023/01/29 22:44:41;;;;;;;11.57;7.07;;;;;;;;;;10397957;28;20661;-77
2023/01/29 22:49:44;;;;;;;8.48;5.30;;;;;;;;;;10425813;28;20211;-77
2023/01/29 22:54:45;;;;;;;9.90;5.88;;;;;;;;;;10423031;28;20612;-78
2023/01/29 22:59:46;;;;;;;7.57;6.32;;;;;;;;;;10407762;28;20685;-78
2023/01/29 23:04:47;;;;;;;9.07;5.68;;;;;;;;;;10419151;28;20356;-77
2023/01/29 23:09:48;;;;;;;11.23;6.18;;;;;;;;;;10430801;28;20747;-78
2023/01/29 23:14:49;;;;;;;11.43;6.40;;;;;;;;;;10434765;28;20987;-78
2023/01/29 23:19:50;;;;;;;10.95;6.90;;;;;;;;;;10420121;28;20631;-78
2023/01/29 23:24:52;;;;;;;9.88;5.93;;;;;;;;;;10415391;28;20218;-78
2023/01/29 23:29:53;;;;;;;10.48;6.00;;;;;;;;;;10420500;28;20234;-78
2023/01/29 23:34:54;;;;;;;10.95;5.88;;;;;;;;;;10403227;28;20225;-77
2023/01/29 23:39:55;;;;;;;8.65;5.88;;;;;;;;;;10416175;28;20758;-78
2023/01/29 23:44:56;;;;;;;7.63;5.40;;;;;;;;;;10424911;28;20226;-77
2023/01/29 23:49:57;;;;;;;7.82;5.18;;;;;;;;;;10417715;28;20214;-78
2023/01/29 23:54:58;;;;;;;8.23;5.43;;;;;;;;;;10418241;28;20214;-76
2023/01/29 23:59:59;;;;;;;9.32;5.28;;;;;;;;;;10412710;28;20221;-79
